Terminal Aerodrome Forecast
Issued by NWS Bismarck, ND

Home | Current Version | Previous Version | Text Only | Print | Product List | Glossary On
Versions: 1 2 3 4 5 6 7 8 9 10 11 12 13 14 15 16 17 18 19 20 21 22 23 24 25
546
FTUS43 KBIS 131738
TAFISN
TAF
KISN 131738Z 1318/1418 32017G25KT P6SM FEW016 SCT200
      TEMPO 1319/1321 SCT012 BKN020
     FM132100 31011KT P6SM FEW100 BKN250
     FM140200 29008KT P6SM -SHSN SCT070 BKN100
     FM140500 30011KT 1SM -SN BR OVC020
     FM140900 33018G26KT 2SM -SN BR OVC020
     FM141400 33016G24KT 5SM -SHSN OVC025=

USA.gov is the U.S. government's official web portal to all federal, state and local government web resources and services.